sensor_id;sensor_type;location;lat;lon;timestamp;temperature;humidity
74081;SHT31;62438;52.228;6.864;2023-08-12T00:00:19;19.80;99.99
74081;SHT31;62438;52.228;6.864;2023-08-12T00:02:20;19.80;99.99
74081;SHT31;62438;52.228;6.864;2023-08-12T00:04:20;19.80;99.98
74081;SHT31;62438;52.228;6.864;2023-08-12T00:06:21;19.77;99.85
74081;SHT31;62438;52.228;6.864;2023-08-12T00:08:21;19.77;99.97
74081;SHT31;62438;52.228;6.864;2023-08-12T00:10:22;19.75;99.87
74081;SHT31;62438;52.228;6.864;2023-08-12T00:12:22;19.77;99.99
74081;SHT31;62438;52.228;6.864;2023-08-12T00:14:23;19.76;99.99
74081;SHT31;62438;52.228;6.864;2023-08-12T00:16:23;19.79;99.99
74081;SHT31;62438;52.228;6.864;2023-08-12T00:18:23;19.77;99.99
74081;SHT31;62438;52.228;6.864;2023-08-12T00:20:24;19.76;99.99
74081;SHT31;62438;52.228;6.864;2023-08-12T00:22:24;19.75;99.99
74081;SHT31;62438;52.228;6.864;2023-08-12T00:24:25;19.73;99.99
74081;SHT31;62438;52.228;6.864;2023-08-12T00:26:25;19.72;99.99
74081;SHT31;62438;52.228;6.864;2023-08-12T00:28:27;19.72;99.99
74081;SHT31;62438;52.228;6.864;2023-08-12T00:30:27;19.72;99.99
74081;SHT31;62438;52.228;6.864;2023-08-12T00:32:27;19.70;99.99
74081;SHT31;62438;52.228;6.864;2023-08-12T00:34:28;19.69;99.99
74081;SHT31;62438;52.228;6.864;2023-08-12T00:36:28;19.67;99.99
74081;SHT31;62438;52.228;6.864;2023-08-12T00:38:29;19.69;99.99
74081;SHT31;62438;52.228;6.864;2023-08-12T00:40:29;19.67;99.99
74081;SHT31;62438;52.228;6.864;2023-08-12T00:42:30;19.69;99.99
74081;SHT31;62438;52.228;6.864;2023-08-12T00:44:30;19.69;99.99
74081;SHT31;62438;52.228;6.864;2023-08-12T00:46:31;19.66;99.99
74081;SHT31;62438;52.228;6.864;2023-08-12T00:48:32;19.63;99.99
74081;SHT31;62438;52.228;6.864;2023-08-12T00:50:33;19.63;99.99
74081;SHT31;62438;52.228;6.864;2023-08-12T00:52:33;19.61;99.99
74081;SHT31;62438;52.228;6.864;2023-08-12T00:54:33;19.62;99.99
74081;SHT31;62438;52.228;6.864;2023-08-12T00:56:35;19.62;99.99
74081;SHT31;62438;52.228;6.864;2023-08-12T00:58:35;19.62;99.99
74081;SHT31;62438;52.228;6.864;2023-08-12T01:00:36;19.62;99.99
74081;SHT31;62438;52.228;6.864;2023-08-12T01:02:37;19.62;99.99
74081;SHT31;62438;52.228;6.864;2023-08-12T01:04:38;19.63;99.99
74081;SHT31;62438;52.228;6.864;2023-08-12T01:06:38;19.61;99.99
74081;SHT31;62438;52.228;6.864;2023-08-12T01:08:39;19.59;99.99
74081;SHT31;62438;52.228;6.864;2023-08-12T01:10:47;19.59;99.99
74081;SHT31;62438;52.228;6.864;2023-08-12T01:12:53;19.59;99.99
74081;SHT31;62438;52.228;6.864;2023-08-12T01:15:04;19.61;99.99
74081;SHT31;62438;52.228;6.864;2023-08-12T01:17:09;19.63;99.99
74081;SHT31;62438;52.228;6.864;2023-08-12T01:19:20;19.61;99.99
74081;SHT31;62438;52.228;6.864;2023-08-12T01:21:24;19.65;99.99
74081;SHT31;62438;52.228;6.864;2023-08-12T01:23:27;19.63;99.99
74081;SHT31;62438;52.228;6.864;2023-08-12T01:25:27;19.63;99.99
74081;SHT31;62438;52.228;6.864;2023-08-12T01:27:27;19.65;99.99
74081;SHT31;62438;52.228;6.864;2023-08-12T01:29:28;19.62;99.99
74081;SHT31;62438;52.228;6.864;2023-08-12T01:31:43;19.59;99.99
74081;SHT31;62438;52.228;6.864;2023-08-12T01:33:55;19.59;99.99
74081;SHT31;62438;52.228;6.864;2023-08-12T01:36:09;19.58;99.99
74081;SHT31;62438;52.228;6.864;2023-08-12T01:38:13;19.58;99.99
74081;SHT31;62438;52.228;6.864;2023-08-12T01:40:15;19.56;99.99
74081;SHT31;62438;52.228;6.864;2023-08-12T01:42:18;19.55;99.99
74081;SHT31;62438;52.228;6.864;2023-08-12T01:44:19;19.54;99.99
74081;SHT31;62438;52.228;6.864;2023-08-12T01:46:21;19.56;99.99
74081;SHT31;62438;52.228;6.864;2023-08-12T01:48:21;19.55;99.99
74081;SHT31;62438;52.228;6.864;2023-08-12T01:50:23;19.55;99.99
74081;SHT31;62438;52.228;6.864;2023-08-12T01:52:24;19.54;99.99
74081;SHT31;62438;52.228;6.864;2023-08-12T01:54:25;19.49;99.99
74081;SHT31;62438;52.228;6.864;2023-08-12T01:56:25;19.49;99.99
74081;SHT31;62438;52.228;6.864;2023-08-12T01:58:26;19.48;99.99
74081;SHT31;62438;52.228;6.864;2023-08-12T02:00:26;19.51;99.99
74081;SHT31;62438;52.228;6.864;2023-08-12T02:02:26;19.49;99.99
74081;SHT31;62438;52.228;6.864;2023-08-12T02:04:27;19.45;99.99
74081;SHT31;62438;52.228;6.864;2023-08-12T02:06:27;19.51;99.99
74081;SHT31;62438;52.228;6.864;2023-08-12T02:08:28;19.55;99.99
74081;SHT31;62438;52.228;6.864;2023-08-12T02:10:28;19.52;99.99
74081;SHT31;62438;52.228;6.864;2023-08-12T02:12:29;19.54;99.99
74081;SHT31;62438;52.228;6.864;2023-08-12T02:14:29;19.55;99.99
74081;SHT31;62438;52.228;6.864;2023-08-12T02:16:29;19.54;99.99
74081;SHT31;62438;52.228;6.864;2023-08-12T02:18:30;19.54;99.99
74081;SHT31;62438;52.228;6.864;2023-08-12T02:20:30;19.51;99.99
74081;SHT31;62438;52.228;6.864;2023-08-12T02:22:30;19.49;99.99
74081;SHT31;62438;52.228;6.864;2023-08-12T02:24:31;19.51;99.99
74081;SHT31;62438;52.228;6.864;2023-08-12T02:26:31;19.48;99.99
74081;SHT31;62438;52.228;6.864;2023-08-12T02:28:32;19.52;99.99
74081;SHT31;62438;52.228;6.864;2023-08-12T02:30:32;19.54;99.99
74081;SHT31;62438;52.228;6.864;2023-08-12T02:32:33;19.55;99.99
74081;SHT31;62438;52.228;6.864;2023-08-12T02:34:33;19.54;99.99
74081;SHT31;62438;52.228;6.864;2023-08-12T02:36:34;19.51;99.99
74081;SHT31;62438;52.228;6.864;2023-08-12T02:38:34;19.51;99.99
74081;SHT31;62438;52.228;6.864;2023-08-12T02:40:35;19.46;99.99
74081;SHT31;62438;52.228;6.864;2023-08-12T02:42:35;19.48;99.99
74081;SHT31;62438;52.228;6.864;2023-08-12T02:44:35;19.45;99.99
74081;SHT31;62438;52.228;6.864;2023-08-12T02:46:36;19.48;99.99
74081;SHT31;62438;52.228;6.864;2023-08-12T02:48:36;19.46;99.99
74081;SHT31;62438;52.228;6.864;2023-08-12T02:50:38;19.45;99.99
74081;SHT31;62438;52.228;6.864;2023-08-12T02:52:38;19.44;99.99
74081;SHT31;62438;52.228;6.864;2023-08-12T02:54:39;19.45;99.99
74081;SHT31;62438;52.228;6.864;2023-08-12T02:56:39;19.41;99.99
74081;SHT31;62438;52.228;6.864;2023-08-12T02:58:40;19.44;99.99
74081;SHT31;62438;52.228;6.864;2023-08-12T03:00:41;19.45;99.99
74081;SHT31;62438;52.228;6.864;2023-08-12T03:02:43;19.45;99.99
74081;SHT31;62438;52.228;6.864;2023-08-12T03:04:44;19.44;99.99
74081;SHT31;62438;52.228;6.864;2023-08-12T03:06:44;19.42;99.99
74081;SHT31;62438;52.228;6.864;2023-08-12T03:08:44;19.41;99.99
74081;SHT31;62438;52.228;6.864;2023-08-12T03:10:45;19.44;99.99
74081;SHT31;62438;52.228;6.864;2023-08-12T03:12:45;19.48;99.99
74081;SHT31;62438;52.228;6.864;2023-08-12T03:14:46;19.46;99.99
74081;SHT31;62438;52.228;6.864;2023-08-12T03:16:46;19.44;99.99
74081;SHT31;62438;52.228;6.864;2023-08-12T03:18:47;19.45;99.99
74081;SHT31;62438;52.228;6.864;2023-08-12T03:20:47;19.42;99.99
74081;SHT31;62438;52.228;6.864;2023-08-12T03:22:48;19.41;99.99
74081;SHT31;62438;52.228;6.864;2023-08-12T03:24:48;19.41;99.99
74081;SHT31;62438;52.228;6.864;2023-08-12T03:26:49;19.42;99.99
74081;SHT31;62438;52.228;6.864;2023-08-12T03:28:49;19.36;99.99
74081;SHT31;62438;52.228;6.864;2023-08-12T03:30:51;19.38;99.99
74081;SHT31;62438;52.228;6.864;2023-08-12T03:32:52;19.39;99.99
74081;SHT31;62438;52.228;6.864;2023-08-12T03:34:53;19.41;99.99
74081;SHT31;62438;52.228;6.864;2023-08-12T03:36:54;19.39;99.99
74081;SHT31;62438;52.228;6.864;2023-08-12T03:38:55;19.39;99.99
74081;SHT31;62438;52.228;6.864;2023-08-12T03:40:55;19.39;99.99
74081;SHT31;62438;52.228;6.864;2023-08-12T03:42:56;19.39;99.99
74081;SHT31;62438;52.228;6.864;2023-08-12T03:44:57;19.36;99.99
74081;SHT31;62438;52.228;6.864;2023-08-12T03:46:57;19.38;99.99
74081;SHT31;62438;52.228;6.864;2023-08-12T03:48:57;19.36;99.99
74081;SHT31;62438;52.228;6.864;2023-08-12T03:50:58;19.38;99.99
74081;SHT31;62438;52.228;6.864;2023-08-12T03:52:58;19.41;99.99
74081;SHT31;62438;52.228;6.864;2023-08-12T03:54:58;19.41;99.99
74081;SHT31;62438;52.228;6.864;2023-08-12T03:56:59;19.38;99.99
74081;SHT31;62438;52.228;6.864;2023-08-12T03:58:59;19.44;99.99
74081;SHT31;62438;52.228;6.864;2023-08-12T04:01:00;19.39;99.99
74081;SHT31;62438;52.228;6.864;2023-08-12T04:03:00;19.41;99.99
74081;SHT31;62438;52.228;6.864;2023-08-12T04:05:01;19.39;99.99
74081;SHT31;62438;52.228;6.864;2023-08-12T04:07:01;19.39;99.99
74081;SHT31;62438;52.228;6.864;2023-08-12T04:09:02;19.38;99.99
74081;SHT31;62438;52.228;6.864;2023-08-12T04:11:02;19.41;99.99
74081;SHT31;62438;52.228;6.864;2023-08-12T04:13:02;19.41;99.99
74081;SHT31;62438;52.228;6.864;2023-08-12T04:15:03;19.39;99.99
74081;SHT31;62438;52.228;6.864;2023-08-12T04:17:05;19.39;99.99
74081;SHT31;62438;52.228;6.864;2023-08-12T04:19:06;19.36;99.99
74081;SHT31;62438;52.228;6.864;2023-08-12T04:21:06;19.36;99.99
74081;SHT31;62438;52.228;6.864;2023-08-12T04:23:06;19.34;99.99
74081;SHT31;62438;52.228;6.864;2023-08-12T04:25:07;19.36;99.99
74081;SHT31;62438;52.228;6.864;2023-08-12T04:27:08;19.35;99.99
74081;SHT31;62438;52.228;6.864;2023-08-12T04:29:08;19.36;99.99
74081;SHT31;62438;52.228;6.864;2023-08-12T04:31:08;19.36;99.99
74081;SHT31;62438;52.228;6.864;2023-08-12T04:33:09;19.38;99.99
74081;SHT31;62438;52.228;6.864;2023-08-12T04:35:09;19.36;99.99
74081;SHT31;62438;52.228;6.864;2023-08-12T04:37:10;19.35;99.99
74081;SHT31;62438;52.228;6.864;2023-08-12T04:39:10;19.32;99.99
74081;SHT31;62438;52.228;6.864;2023-08-12T04:41:10;19.36;99.99
74081;SHT31;62438;52.228;6.864;2023-08-12T04:43:11;19.34;99.99
74081;SHT31;62438;52.228;6.864;2023-08-12T04:45:13;19.35;99.99
74081;SHT31;62438;52.228;6.864;2023-08-12T04:47:13;19.34;99.99
74081;SHT31;62438;52.228;6.864;2023-08-12T04:49:14;19.31;99.99
74081;SHT31;62438;52.228;6.864;2023-08-12T04:51:15;19.28;99.99
74081;SHT31;62438;52.228;6.864;2023-08-12T04:53:15;19.31;99.99
74081;SHT31;62438;52.228;6.864;2023-08-12T04:55:15;19.27;99.99
74081;SHT31;62438;52.228;6.864;2023-08-12T04:57:17;19.25;99.99
74081;SHT31;62438;52.228;6.864;2023-08-12T04:59:17;19.29;99.99
74081;SHT31;62438;52.228;6.864;2023-08-12T05:01:18;19.29;99.99
74081;SHT31;62438;52.228;6.864;2023-08-12T05:03:18;19.28;99.99
74081;SHT31;62438;52.228;6.864;2023-08-12T05:05:19;19.29;99.99
74081;SHT31;62438;52.228;6.864;2023-08-12T05:07:19;19.31;99.99
74081;SHT31;62438;52.228;6.864;2023-08-12T05:09:20;19.31;99.99
74081;SHT31;62438;52.228;6.864;2023-08-12T05:11:20;19.28;99.99
74081;SHT31;62438;52.228;6.864;2023-08-12T05:13:21;19.27;99.99
74081;SHT31;62438;52.228;6.864;2023-08-12T05:15:23;19.29;99.99
74081;SHT31;62438;52.228;6.864;2023-08-12T05:17:24;19.32;99.99
74081;SHT31;62438;52.228;6.864;2023-08-12T05:19:24;19.34;99.99
74081;SHT31;62438;52.228;6.864;2023-08-12T05:21:25;19.34;99.99
74081;SHT31;62438;52.228;6.864;2023-08-12T05:23:25;19.36;99.99
74081;SHT31;62438;52.228;6.864;2023-08-12T05:25:25;19.39;99.99
74081;SHT31;62438;52.228;6.864;2023-08-12T05:27:26;19.41;99.99
74081;SHT31;62438;52.228;6.864;2023-08-12T05:29:26;19.46;99.99
74081;SHT31;62438;52.228;6.864;2023-08-12T05:31:27;19.45;99.99
74081;SHT31;62438;52.228;6.864;2023-08-12T05:33:27;19.51;99.99
74081;SHT31;62438;52.228;6.864;2023-08-12T05:35:27;19.49;99.99
74081;SHT31;62438;52.228;6.864;2023-08-12T05:37:28;19.55;99.99
74081;SHT31;62438;52.228;6.864;2023-08-12T05:39:28;19.55;99.99
74081;SHT31;62438;52.228;6.864;2023-08-12T05:41:29;19.61;99.99
74081;SHT31;62438;52.228;6.864;2023-08-12T05:43:29;19.65;99.99
74081;SHT31;62438;52.228;6.864;2023-08-12T05:45:29;19.72;99.99
74081;SHT31;62438;52.228;6.864;2023-08-12T05:47:30;19.77;99.99
74081;SHT31;62438;52.228;6.864;2023-08-12T05:49:32;19.85;99.99
74081;SHT31;62438;52.228;6.864;2023-08-12T05:51:32;19.97;99.99
74081;SHT31;62438;52.228;6.864;2023-08-12T05:53:33;20.00;99.57
74081;SHT31;62438;52.228;6.864;2023-08-12T05:55:33;20.18;99.76
74081;SHT31;62438;52.228;6.864;2023-08-12T05:57:35;20.17;99.15
74081;SHT31;62438;52.228;6.864;2023-08-12T05:59:35;20.18;98.95
74081;SHT31;62438;52.228;6.864;2023-08-12T06:01:35;20.27;98.67
74081;SHT31;62438;52.228;6.864;2023-08-12T06:03:36;20.33;98.59
74081;SHT31;62438;52.228;6.864;2023-08-12T06:05:36;20.21;98.11
74081;SHT31;62438;52.228;6.864;2023-08-12T06:07:37;20.25;98.72
74081;SHT31;62438;52.228;6.864;2023-08-12T06:09:37;20.28;98.49
74081;SHT31;62438;52.228;6.864;2023-08-12T06:11:37;20.23;98.70
74081;SHT31;62438;52.228;6.864;2023-08-12T06:13:38;20.25;99.37
74081;SHT31;62438;52.228;6.864;2023-08-12T06:15:38;20.23;98.89
74081;SHT31;62438;52.228;6.864;2023-08-12T06:17:39;20.17;98.41
74081;SHT31;62438;52.228;6.864;2023-08-12T06:19:39;20.16;98.67
74081;SHT31;62438;52.228;6.864;2023-08-12T06:21:40;20.17;98.71
74081;SHT31;62438;52.228;6.864;2023-08-12T06:23:40;20.20;98.91
74081;SHT31;62438;52.228;6.864;2023-08-12T06:25:41;20.24;98.67
74081;SHT31;62438;52.228;6.864;2023-08-12T06:27:43;20.30;98.49
74081;SHT31;62438;52.228;6.864;2023-08-12T06:29:44;20.31;98.10
74081;SHT31;62438;52.228;6.864;2023-08-12T06:31:44;20.23;98.09
74081;SHT31;62438;52.228;6.864;2023-08-12T06:33:44;20.21;97.94
74081;SHT31;62438;52.228;6.864;2023-08-12T06:35:45;20.21;98.45
74081;SHT31;62438;52.228;6.864;2023-08-12T06:37:45;20.13;98.93
74081;SHT31;62438;52.228;6.864;2023-08-12T06:39:45;20.07;98.35
74081;SHT31;62438;52.228;6.864;2023-08-12T06:41:46;20.00;98.65
74081;SHT31;62438;52.228;6.864;2023-08-12T06:43:46;19.98;99.02
74081;SHT31;62438;52.228;6.864;2023-08-12T06:45:46;19.92;99.29
74081;SHT31;62438;52.228;6.864;2023-08-12T06:47:47;19.87;99.34
74081;SHT31;62438;52.228;6.864;2023-08-12T06:49:48;19.86;99.71
74081;SHT31;62438;52.228;6.864;2023-08-12T06:51:48;19.85;99.80
74081;SHT31;62438;52.228;6.864;2023-08-12T06:53:48;19.79;99.99
74081;SHT31;62438;52.228;6.864;2023-08-12T06:55:49;19.76;99.99
74081;SHT31;62438;52.228;6.864;2023-08-12T06:57:49;19.75;99.99
74081;SHT31;62438;52.228;6.864;2023-08-12T06:59:50;19.75;99.99
74081;SHT31;62438;52.228;6.864;2023-08-12T07:01:50;19.72;99.99
74081;SHT31;62438;52.228;6.864;2023-08-12T07:03:50;19.70;99.99
74081;SHT31;62438;52.228;6.864;2023-08-12T07:05:52;19.67;99.99
74081;SHT31;62438;52.228;6.864;2023-08-12T07:07:53;19.65;99.99
74081;SHT31;62438;52.228;6.864;2023-08-12T07:09:53;19.62;99.99
74081;SHT31;62438;52.228;6.864;2023-08-12T07:11:53;19.62;99.99
74081;SHT31;62438;52.228;6.864;2023-08-12T07:13:54;19.56;99.99
74081;SHT31;62438;52.228;6.864;2023-08-12T07:15:54;19.51;99.99
74081;SHT31;62438;52.228;6.864;2023-08-12T07:17:55;19.52;99.99
74081;SHT31;62438;52.228;6.864;2023-08-12T07:19:55;19.51;99.99
74081;SHT31;62438;52.228;6.864;2023-08-12T07:21:56;19.52;99.99
74081;SHT31;62438;52.228;6.864;2023-08-12T07:23:56;19.49;99.99
74081;SHT31;62438;52.228;6.864;2023-08-12T07:25:57;19.49;99.99
74081;SHT31;62438;52.228;6.864;2023-08-12T07:27:58;19.49;99.99
74081;SHT31;62438;52.228;6.864;2023-08-12T07:29:58;19.52;99.99
74081;SHT31;62438;52.228;6.864;2023-08-12T07:31:58;19.48;99.99
74081;SHT31;62438;52.228;6.864;2023-08-12T07:33:59;19.49;99.99
74081;SHT31;62438;52.228;6.864;2023-08-12T07:35:59;19.48;99.99
74081;SHT31;62438;52.228;6.864;2023-08-12T07:38:00;19.45;99.99
74081;SHT31;62438;52.228;6.864;2023-08-12T07:40:00;19.44;99.99
74081;SHT31;62438;52.228;6.864;2023-08-12T07:42:00;19.42;99.99
74081;SHT31;62438;52.228;6.864;2023-08-12T07:44:01;19.45;99.99
74081;SHT31;62438;52.228;6.864;2023-08-12T07:46:01;19.39;99.99
74081;SHT31;62438;52.228;6.864;2023-08-12T07:48:02;19.39;99.99
74081;SHT31;62438;52.228;6.864;2023-08-12T07:50:02;19.39;99.99
74081;SHT31;62438;52.228;6.864;2023-08-12T07:52:03;19.38;99.99
74081;SHT31;62438;52.228;6.864;2023-08-12T07:54:04;19.34;99.99
74081;SHT31;62438;52.228;6.864;2023-08-12T07:56:04;19.35;99.99
74081;SHT31;62438;52.228;6.864;2023-08-12T07:58:05;19.34;99.99
74081;SHT31;62438;52.228;6.864;2023-08-12T08:00:06;19.32;99.99
74081;SHT31;62438;52.228;6.864;2023-08-12T08:02:08;19.34;99.99
74081;SHT31;62438;52.228;6.864;2023-08-12T08:04:08;19.38;99.99
74081;SHT31;62438;52.228;6.864;2023-08-12T08:06:09;19.35;99.99
74081;SHT31;62438;52.228;6.864;2023-08-12T08:08:09;19.36;99.99
74081;SHT31;62438;52.228;6.864;2023-08-12T08:10:10;19.42;99.99
74081;SHT31;62438;52.228;6.864;2023-08-12T08:12:10;19.45;99.99
74081;SHT31;62438;52.228;6.864;2023-08-12T08:14:11;19.54;99.99
74081;SHT31;62438;52.228;6.864;2023-08-12T08:16:11;19.59;99.99
74081;SHT31;62438;52.228;6.864;2023-08-12T08:18:12;19.61;99.99
74081;SHT31;62438;52.228;6.864;2023-08-12T08:20:12;19.62;99.99
74081;SHT31;62438;52.228;6.864;2023-08-12T08:22:12;19.66;99.99
74081;SHT31;62438;52.228;6.864;2023-08-12T08:24:13;19.65;99.99
74081;SHT31;62438;52.228;6.864;2023-08-12T08:26:13;19.67;99.99
74081;SHT31;62438;52.228;6.864;2023-08-12T08:28:15;19.61;99.99
74081;SHT31;62438;52.228;6.864;2023-08-12T08:30:16;19.62;99.99
74081;SHT31;62438;52.228;6.864;2023-08-12T08:32:16;19.65;99.99
74081;SHT31;62438;52.228;6.864;2023-08-12T08:34:17;19.79;99.99
74081;SHT31;62438;52.228;6.864;2023-08-12T08:36:17;19.82;99.99
74081;SHT31;62438;52.228;6.864;2023-08-12T08:38:18;19.87;99.99
74081;SHT31;62438;52.228;6.864;2023-08-12T08:40:18;19.96;99.99
74081;SHT31;62438;52.228;6.864;2023-08-12T08:42:20;19.96;99.99
74081;SHT31;62438;52.228;6.864;2023-08-12T08:44:22;20.01;99.99
74081;SHT31;62438;52.228;6.864;2023-08-12T08:46:23;20.00;99.99
74081;SHT31;62438;52.228;6.864;2023-08-12T08:48:24;20.07;99.99
74081;SHT31;62438;52.228;6.864;2023-08-12T08:50:25;20.04;99.99
74081;SHT31;62438;52.228;6.864;2023-08-12T08:52:27;20.07;99.99
74081;SHT31;62438;52.228;6.864;2023-08-12T08:54:28;20.07;99.99
74081;SHT31;62438;52.228;6.864;2023-08-12T08:56:28;20.09;99.99
74081;SHT31;62438;52.228;6.864;2023-08-12T08:58:28;20.07;99.99
74081;SHT31;62438;52.228;6.864;2023-08-12T09:00:29;20.14;99.99
74081;SHT31;62438;52.228;6.864;2023-08-12T09:02:30;20.10;99.99
74081;SHT31;62438;52.228;6.864;2023-08-12T09:04:31;20.17;99.99
74081;SHT31;62438;52.228;6.864;2023-08-12T09:06:32;20.09;99.99
74081;SHT31;62438;52.228;6.864;2023-08-12T09:08:34;20.04;99.99
74081;SHT31;62438;52.228;6.864;2023-08-12T09:10:36;20.09;99.99
74081;SHT31;62438;52.228;6.864;2023-08-12T09:12:39;20.07;99.99
74081;SHT31;62438;52.228;6.864;2023-08-12T09:14:40;20.12;99.99
74081;SHT31;62438;52.228;6.864;2023-08-12T09:16:41;20.13;99.99
74081;SHT31;62438;52.228;6.864;2023-08-12T09:18:42;20.16;99.99
74081;SHT31;62438;52.228;6.864;2023-08-12T09:20:43;20.10;99.99
74081;SHT31;62438;52.228;6.864;2023-08-12T09:22:44;20.04;99.99
74081;SHT31;62438;52.228;6.864;2023-08-12T09:24:44;20.01;99.99
74081;SHT31;62438;52.228;6.864;2023-08-12T09:26:51;19.98;99.99
74081;SHT31;62438;52.228;6.864;2023-08-12T09:28:51;19.98;99.99
74081;SHT31;62438;52.228;6.864;2023-08-12T09:30:52;20.00;99.99
74081;SHT31;62438;52.228;6.864;2023-08-12T09:33:02;20.04;99.99
74081;SHT31;62438;52.228;6.864;2023-08-12T09:35:04;20.04;99.99
74081;SHT31;62438;52.228;6.864;2023-08-12T09:37:06;20.01;99.99
74081;SHT31;62438;52.228;6.864;2023-08-12T09:39:07;20.04;99.99
74081;SHT31;62438;52.228;6.864;2023-08-12T09:41:10;20.07;99.99
74081;SHT31;62438;52.228;6.864;2023-08-12T09:43:11;20.09;99.99
74081;SHT31;62438;52.228;6.864;2023-08-12T09:45:11;20.14;99.99
74081;SHT31;62438;52.228;6.864;2023-08-12T09:47:12;20.17;99.99
74081;SHT31;62438;52.228;6.864;2023-08-12T09:49:13;20.31;99.99
74081;SHT31;62438;52.228;6.864;2023-08-12T09:51:13;20.30;99.99
74081;SHT31;62438;52.228;6.864;2023-08-12T09:53:14;20.33;99.99
74081;SHT31;62438;52.228;6.864;2023-08-12T09:55:16;20.34;99.99
74081;SHT31;62438;52.228;6.864;2023-08-12T09:57:18;20.38;99.99
74081;SHT31;62438;52.228;6.864;2023-08-12T09:59:19;20.48;99.99
74081;SHT31;62438;52.228;6.864;2023-08-12T10:01:23;20.52;99.99
74081;SHT31;62438;52.228;6.864;2023-08-12T10:03:25;20.61;99.99
74081;SHT31;62438;52.228;6.864;2023-08-12T10:05:31;20.65;99.99
74081;SHT31;62438;52.228;6.864;2023-08-12T10:07:32;20.71;99.99
74081;SHT31;62438;52.228;6.864;2023-08-12T10:09:32;20.68;99.99
74081;SHT31;62438;52.228;6.864;2023-08-12T10:11:33;20.78;99.99
74081;SHT31;62438;52.228;6.864;2023-08-12T10:13:34;20.78;99.99
74081;SHT31;62438;52.228;6.864;2023-08-12T10:15:36;20.75;99.70
74081;SHT31;62438;52.228;6.864;2023-08-12T10:17:36;20.69;99.89
74081;SHT31;62438;52.228;6.864;2023-08-12T10:19:37;20.68;99.99
74081;SHT31;62438;52.228;6.864;2023-08-12T10:21:44;20.69;99.99
74081;SHT31;62438;52.228;6.864;2023-08-12T10:23:45;20.75;99.99
74081;SHT31;62438;52.228;6.864;2023-08-12T10:25:47;20.83;99.84
74081;SHT31;62438;52.228;6.864;2023-08-12T10:27:49;20.88;99.99
74081;SHT31;62438;52.228;6.864;2023-08-12T10:29:50;20.78;99.79
74081;SHT31;62438;52.228;6.864;2023-08-12T10:31:50;20.86;99.61
74081;SHT31;62438;52.228;6.864;2023-08-12T10:33:51;20.81;99.17
74081;SHT31;62438;52.228;6.864;2023-08-12T10:35:55;20.81;98.91
74081;SHT31;62438;52.228;6.864;2023-08-12T10:37:55;20.78;99.14
74081;SHT31;62438;52.228;6.864;2023-08-12T10:39:57;20.76;98.43
74081;SHT31;62438;52.228;6.864;2023-08-12T10:41:59;20.79;99.11
74081;SHT31;62438;52.228;6.864;2023-08-12T10:44:00;20.81;99.35
74081;SHT31;62438;52.228;6.864;2023-08-12T10:46:04;20.83;98.69
74081;SHT31;62438;52.228;6.864;2023-08-12T10:48:16;20.89;98.28
74081;SHT31;62438;52.228;6.864;2023-08-12T10:50:21;20.89;98.29
74081;SHT31;62438;52.228;6.864;2023-08-12T10:52:29;20.91;98.01
74081;SHT31;62438;52.228;6.864;2023-08-12T10:54:30;20.88;97.83
74081;SHT31;62438;52.228;6.864;2023-08-12T10:56:30;20.95;98.02
74081;SHT31;62438;52.228;6.864;2023-08-12T10:58:39;20.92;98.25
74081;SHT31;62438;52.228;6.864;2023-08-12T11:00:41;20.92;98.20
74081;SHT31;62438;52.228;6.864;2023-08-12T11:02:45;20.86;97.69
74081;SHT31;62438;52.228;6.864;2023-08-12T11:04:54;20.81;98.37
74081;SHT31;62438;52.228;6.864;2023-08-12T11:06:55;20.78;99.15
74081;SHT31;62438;52.228;6.864;2023-08-12T11:08:56;20.62;99.99
74081;SHT31;62438;52.228;6.864;2023-08-12T11:10:56;20.73;99.99
74081;SHT31;62438;52.228;6.864;2023-08-12T11:13:00;20.95;99.99
74081;SHT31;62438;52.228;6.864;2023-08-12T11:15:02;21.20;99.99
74081;SHT31;62438;52.228;6.864;2023-08-12T11:17:13;21.43;99.39
74081;SHT31;62438;52.228;6.864;2023-08-12T11:19:14;21.55;97.70
74081;SHT31;62438;52.228;6.864;2023-08-12T11:21:15;21.89;96.97
74081;SHT31;62438;52.228;6.864;2023-08-12T11:23:16;21.99;96.89
74081;SHT31;62438;52.228;6.864;2023-08-12T11:25:17;22.13;94.86
74081;SHT31;62438;52.228;6.864;2023-08-12T11:27:18;22.49;94.49
74081;SHT31;62438;52.228;6.864;2023-08-12T11:29:18;22.76;93.14
74081;SHT31;62438;52.228;6.864;2023-08-12T11:31:19;22.73;93.35
74081;SHT31;62438;52.228;6.864;2023-08-12T11:33:20;22.84;93.50
74081;SHT31;62438;52.228;6.864;2023-08-12T11:35:23;22.77;94.31
74081;SHT31;62438;52.228;6.864;2023-08-12T11:37:24;22.55;92.41
74081;SHT31;62438;52.228;6.864;2023-08-12T11:39:24;22.49;94.60
74081;SHT31;62438;52.228;6.864;2023-08-12T11:41:26;22.09;94.12
74081;SHT31;62438;52.228;6.864;2023-08-12T11:43:27;21.82;94.15
74081;SHT31;62438;52.228;6.864;2023-08-12T11:45:27;21.94;94.74
74081;SHT31;62438;52.228;6.864;2023-08-12T11:47:28;21.97;96.09
74081;SHT31;62438;52.228;6.864;2023-08-12T11:49:29;21.81;95.99
74081;SHT31;62438;52.228;6.864;2023-08-12T11:51:29;21.64;95.34
74081;SHT31;62438;52.228;6.864;2023-08-12T11:53:30;21.50;95.64
74081;SHT31;62438;52.228;6.864;2023-08-12T11:55:30;21.44;96.82
74081;SHT31;62438;52.228;6.864;2023-08-12T11:57:31;21.54;95.61
74081;SHT31;62438;52.228;6.864;2023-08-12T11:59:35;21.73;93.80
74081;SHT31;62438;52.228;6.864;2023-08-12T12:01:36;21.85;94.34
74081;SHT31;62438;52.228;6.864;2023-08-12T12:03:36;22.23;92.01
74081;SHT31;62438;52.228;6.864;2023-08-12T12:05:37;22.84;91.73
74081;SHT31;62438;52.228;6.864;2023-08-12T12:07:38;22.97;90.44
74081;SHT31;62438;52.228;6.864;2023-08-12T12:09:43;22.80;89.22
74081;SHT31;62438;52.228;6.864;2023-08-12T12:11:44;22.43;91.73
74081;SHT31;62438;52.228;6.864;2023-08-12T12:13:45;22.02;91.98
74081;SHT31;62438;52.228;6.864;2023-08-12T12:15:47;21.77;92.88
74081;SHT31;62438;52.228;6.864;2023-08-12T12:17:49;21.58;94.64
74081;SHT31;62438;52.228;6.864;2023-08-12T12:19:57;21.39;93.98
74081;SHT31;62438;52.228;6.864;2023-08-12T12:22:02;21.31;94.81
74081;SHT31;62438;52.228;6.864;2023-08-12T12:24:03;22.28;92.06
74081;SHT31;62438;52.228;6.864;2023-08-12T12:26:04;22.53;90.04
74081;SHT31;62438;52.228;6.864;2023-08-12T12:28:04;23.49;88.21
74081;SHT31;62438;52.228;6.864;2023-08-12T12:30:08;24.28;86.69
74081;SHT31;62438;52.228;6.864;2023-08-12T12:32:08;24.64;84.51
74081;SHT31;62438;52.228;6.864;2023-08-12T12:34:09;24.38;83.39
74081;SHT31;62438;52.228;6.864;2023-08-12T12:36:09;23.38;85.62
74081;SHT31;62438;52.228;6.864;2023-08-12T12:38:10;23.11;88.47
74081;SHT31;62438;52.228;6.864;2023-08-12T12:40:10;23.79;85.22
74081;SHT31;62438;52.228;6.864;2023-08-12T12:42:11;24.40;84.42
74081;SHT31;62438;52.228;6.864;2023-08-12T12:44:12;24.25;83.79